sensor_id;sensor_type;location;lat;lon;timestamp;pressure;altitude;pressure_sealevel;temperature;humidity
19526;BME280;9907;42.676;26.348;2023-03-26T00:01:54;98141.13;;;13.62;100.00
19526;BME280;9907;42.676;26.348;2023-03-26T00:04:21;98142.75;;;13.48;100.00
19526;BME280;9907;42.676;26.348;2023-03-26T00:06:46;98133.75;;;13.41;100.00
19526;BME280;9907;42.676;26.348;2023-03-26T00:09:14;98135.75;;;13.39;100.00
19526;BME280;9907;42.676;26.348;2023-03-26T00:11:41;98136.41;;;13.41;100.00
19526;BME280;9907;42.676;26.348;2023-03-26T00:14:08;98145.75;;;13.45;100.00
19526;BME280;9907;42.676;26.348;2023-03-26T00:16:34;98149.72;;;13.57;100.00
19526;BME280;9907;42.676;26.348;2023-03-26T00:19:00;98139.81;;;13.81;95.78
19526;BME280;9907;42.676;26.348;2023-03-26T00:21:27;98127.47;;;13.94;91.64
19526;BME280;9907;42.676;26.348;2023-03-26T00:23:55;98125.94;;;14.00;87.37
19526;BME280;9907;42.676;26.348;2023-03-26T00:26:22;98117.44;;;14.11;83.45
19526;BME280;9907;42.676;26.348;2023-03-26T00:28:48;98125.75;;;14.16;81.24
19526;BME280;9907;42.676;26.348;2023-03-26T00:31:15;98107.63;;;14.18;79.42
19526;BME280;9907;42.676;26.348;2023-03-26T00:33:41;98101.59;;;14.16;79.71
19526;BME280;9907;42.676;26.348;2023-03-26T00:36:12;98106.13;;;14.15;79.24
19526;BME280;9907;42.676;26.348;2023-03-26T00:38:41;98094.91;;;14.12;80.33
19526;BME280;9907;42.676;26.348;2023-03-26T00:41:09;98101.50;;;14.09;78.29
19526;BME280;9907;42.676;26.348;2023-03-26T00:43:45;98090.91;;;14.08;77.89
19526;BME280;9907;42.676;26.348;2023-03-26T00:46:11;98093.34;;;14.03;77.12
19526;BME280;9907;42.676;26.348;2023-03-26T00:48:37;98080.91;;;14.02;76.05
19526;BME280;9907;42.676;26.348;2023-03-26T00:51:04;98084.13;;;13.97;76.33
19526;BME280;9907;42.676;26.348;2023-03-26T00:53:31;98080.81;;;13.95;75.51
19526;BME280;9907;42.676;26.348;2023-03-26T00:55:56;98085.34;;;13.95;74.16
19526;BME280;9907;42.676;26.348;2023-03-26T00:58:25;98072.09;;;13.93;74.26
19526;BME280;9907;42.676;26.348;2023-03-26T01:01:03;98081.34;;;13.91;73.20
19526;BME280;9907;42.676;26.348;2023-03-26T01:03:31;98086.09;;;13.89;73.32
19526;BME280;9907;42.676;26.348;2023-03-26T01:08:48;98082.84;;;13.93;71.95
19526;BME280;9907;42.676;26.348;2023-03-26T01:11:15;98085.25;;;13.88;72.16
19526;BME280;9907;42.676;26.348;2023-03-26T01:13:55;98080.03;;;13.87;71.39
19526;BME280;9907;42.676;26.348;2023-03-26T01:17:00;98089.94;;;13.86;71.13
19526;BME280;9907;42.676;26.348;2023-03-26T01:19:32;98089.78;;;13.88;71.04
19526;BME280;9907;42.676;26.348;2023-03-26T01:22:03;98082.25;;;13.83;70.58
19526;BME280;9907;42.676;26.348;2023-03-26T01:24:30;98077.72;;;13.84;70.65
19526;BME280;9907;42.676;26.348;2023-03-26T01:29:34;98069.38;;;13.79;70.32
19526;BME280;9907;42.676;26.348;2023-03-26T01:38:14;98070.31;;;13.86;69.25
19526;BME280;9907;42.676;26.348;2023-03-26T01:46:23;98067.94;;;13.91;68.63
19526;BME280;9907;42.676;26.348;2023-03-26T01:48:50;98071.94;;;13.95;67.58
19526;BME280;9907;42.676;26.348;2023-03-26T01:51:28;98070.72;;;13.97;68.07
19526;BME280;9907;42.676;26.348;2023-03-26T01:53:54;98071.56;;;13.98;68.23
19526;BME280;9907;42.676;26.348;2023-03-26T01:56:33;98076.56;;;14.01;68.51
19526;BME280;9907;42.676;26.348;2023-03-26T02:04:45;98080.28;;;14.00;68.47
19526;BME280;9907;42.676;26.348;2023-03-26T02:07:37;98079.16;;;14.09;67.35
19526;BME280;9907;42.676;26.348;2023-03-26T02:10:11;98073.72;;;14.17;66.28
19526;BME280;9907;42.676;26.348;2023-03-26T02:12:39;98079.09;;;14.17;66.27
19526;BME280;9907;42.676;26.348;2023-03-26T02:15:06;98067.34;;;14.18;66.40
19526;BME280;9907;42.676;26.348;2023-03-26T02:17:31;98064.00;;;14.16;66.14
19526;BME280;9907;42.676;26.348;2023-03-26T02:19:57;98060.31;;;14.17;66.24
19526;BME280;9907;42.676;26.348;2023-03-26T02:22:23;98065.03;;;14.15;66.48
19526;BME280;9907;42.676;26.348;2023-03-26T02:24:54;98063.63;;;14.19;66.98
19526;BME280;9907;42.676;26.348;2023-03-26T02:27:20;98087.78;;;14.19;66.69
19526;BME280;9907;42.676;26.348;2023-03-26T02:29:45;98090.22;;;14.14;66.73
19526;BME280;9907;42.676;26.348;2023-03-26T02:32:12;98083.53;;;14.10;66.67
19526;BME280;9907;42.676;26.348;2023-03-26T02:34:39;98086.06;;;14.11;67.18
19526;BME280;9907;42.676;26.348;2023-03-26T02:37:04;98076.03;;;14.05;67.47
19526;BME280;9907;42.676;26.348;2023-03-26T02:39:30;98092.88;;;13.99;68.38
19526;BME280;9907;42.676;26.348;2023-03-26T02:41:55;98073.78;;;13.94;69.93
19526;BME280;9907;42.676;26.348;2023-03-26T02:44:21;98096.44;;;13.92;71.05
19526;BME280;9907;42.676;26.348;2023-03-26T02:46:46;98082.47;;;13.82;71.23
19526;BME280;9907;42.676;26.348;2023-03-26T02:49:12;98073.94;;;13.78;71.36
19526;BME280;9907;42.676;26.348;2023-03-26T02:51:37;98081.69;;;13.73;72.71
19526;BME280;9907;42.676;26.348;2023-03-26T02:54:03;98087.88;;;13.74;75.34
19526;BME280;9907;42.676;26.348;2023-03-26T02:56:29;98091.34;;;13.59;80.17
19526;BME280;9907;42.676;26.348;2023-03-26T02:58:54;98091.50;;;13.35;81.10
19526;BME280;9907;42.676;26.348;2023-03-26T03:01:20;98085.47;;;13.41;81.55
19526;BME280;9907;42.676;26.348;2023-03-26T03:03:47;98084.53;;;13.49;82.58
19526;BME280;9907;42.676;26.348;2023-03-26T03:06:13;98092.72;;;13.55;80.72
19526;BME280;9907;42.676;26.348;2023-03-26T03:08:41;98094.47;;;13.48;84.18
19526;BME280;9907;42.676;26.348;2023-03-26T03:13:36;98116.97;;;13.39;82.11
19526;BME280;9907;42.676;26.348;2023-03-26T03:16:02;98141.63;;;13.35;81.05
19526;BME280;9907;42.676;26.348;2023-03-26T03:18:27;98139.50;;;13.30;80.24
19526;BME280;9907;42.676;26.348;2023-03-26T03:20:53;98140.19;;;13.24;79.87
19526;BME280;9907;42.676;26.348;2023-03-26T03:23:19;98124.94;;;13.25;79.84
19526;BME280;9907;42.676;26.348;2023-03-26T03:25:45;98135.00;;;13.23;80.51
19526;BME280;9907;42.676;26.348;2023-03-26T03:28:11;98134.47;;;13.27;81.79
19526;BME280;9907;42.676;26.348;2023-03-26T03:30:38;98135.78;;;13.31;82.17
19526;BME280;9907;42.676;26.348;2023-03-26T03:33:04;98147.38;;;13.24;83.26
19526;BME280;9907;42.676;26.348;2023-03-26T03:35:30;98153.06;;;13.29;82.45
19526;BME280;9907;42.676;26.348;2023-03-26T03:37:57;98154.97;;;13.12;83.00
19526;BME280;9907;42.676;26.348;2023-03-26T03:40:22;98147.94;;;13.19;82.32
19526;BME280;9907;42.676;26.348;2023-03-26T03:42:48;98159.31;;;13.21;82.37
19526;BME280;9907;42.676;26.348;2023-03-26T03:45:13;98141.88;;;13.25;82.01
19526;BME280;9907;42.676;26.348;2023-03-26T03:47:39;98116.75;;;13.18;81.52
19526;BME280;9907;42.676;26.348;2023-03-26T03:50:06;98109.06;;;13.15;81.24
19526;BME280;9907;42.676;26.348;2023-03-26T03:52:31;98125.44;;;13.20;79.68
19526;BME280;9907;42.676;26.348;2023-03-26T03:54:57;98129.66;;;13.23;81.54
19526;BME280;9907;42.676;26.348;2023-03-26T03:57:27;98129.16;;;13.19;79.97
19526;BME280;9907;42.676;26.348;2023-03-26T03:59:53;98137.69;;;13.23;79.19
19526;BME280;9907;42.676;26.348;2023-03-26T04:02:23;98170.41;;;13.10;84.46
19526;BME280;9907;42.676;26.348;2023-03-26T04:04:57;98174.44;;;13.06;83.45
19526;BME280;9907;42.676;26.348;2023-03-26T04:07:24;98163.56;;;12.99;83.48
19526;BME280;9907;42.676;26.348;2023-03-26T04:09:50;98171.41;;;13.01;84.74
19526;BME280;9907;42.676;26.348;2023-03-26T04:12:15;98161.41;;;12.95;84.71
19526;BME280;9907;42.676;26.348;2023-03-26T04:14:41;98167.09;;;13.00;82.98
19526;BME280;9907;42.676;26.348;2023-03-26T04:17:07;98172.81;;;12.97;79.32
19526;BME280;9907;42.676;26.348;2023-03-26T04:19:33;98170.25;;;13.03;80.33
19526;BME280;9907;42.676;26.348;2023-03-26T04:21:58;98163.56;;;12.99;79.62
19526;BME280;9907;42.676;26.348;2023-03-26T04:24:28;98170.59;;;13.00;76.37
19526;BME280;9907;42.676;26.348;2023-03-26T04:26:55;98170.13;;;12.97;74.13
19526;BME280;9907;42.676;26.348;2023-03-26T04:29:22;98149.31;;;12.99;74.43
19526;BME280;9907;42.676;26.348;2023-03-26T04:31:55;98124.84;;;13.10;74.59
19526;BME280;9907;42.676;26.348;2023-03-26T04:34:31;98147.13;;;13.02;74.35
19526;BME280;9907;42.676;26.348;2023-03-26T04:37:02;98130.56;;;12.99;74.11
19526;BME280;9907;42.676;26.348;2023-03-26T04:39:29;98151.53;;;12.95;73.84
19526;BME280;9907;42.676;26.348;2023-03-26T04:41:58;98139.59;;;12.98;73.55
19526;BME280;9907;42.676;26.348;2023-03-26T04:44:24;98152.34;;;12.96;73.06
19526;BME280;9907;42.676;26.348;2023-03-26T04:46:50;98142.50;;;12.88;72.93
19526;BME280;9907;42.676;26.348;2023-03-26T04:49:17;98146.38;;;12.86;71.62
19526;BME280;9907;42.676;26.348;2023-03-26T04:51:43;98137.31;;;12.87;72.12
19526;BME280;9907;42.676;26.348;2023-03-26T04:54:12;98141.00;;;12.86;72.15
19526;BME280;9907;42.676;26.348;2023-03-26T04:59:11;98154.69;;;12.99;71.14
19526;BME280;9907;42.676;26.348;2023-03-26T05:01:40;98155.69;;;12.98;71.12
19526;BME280;9907;42.676;26.348;2023-03-26T05:04:06;98139.09;;;13.10;71.14
19526;BME280;9907;42.676;26.348;2023-03-26T05:06:31;98167.88;;;13.08;70.06
19526;BME280;9907;42.676;26.348;2023-03-26T05:08:59;98163.03;;;13.12;69.95
19526;BME280;9907;42.676;26.348;2023-03-26T05:11:26;98163.22;;;13.02;69.79
19526;BME280;9907;42.676;26.348;2023-03-26T05:13:53;98165.41;;;12.99;69.36
19526;BME280;9907;42.676;26.348;2023-03-26T05:16:22;98168.09;;;12.99;69.21
19526;BME280;9907;42.676;26.348;2023-03-26T05:18:49;98171.25;;;13.10;68.95
19526;BME280;9907;42.676;26.348;2023-03-26T05:21:15;98175.78;;;13.10;69.02
19526;BME280;9907;42.676;26.348;2023-03-26T05:23:41;98165.38;;;13.07;69.14
19526;BME280;9907;42.676;26.348;2023-03-26T05:26:08;98175.44;;;13.13;68.98
19526;BME280;9907;42.676;26.348;2023-03-26T05:28:33;98168.44;;;13.35;68.15
19526;BME280;9907;42.676;26.348;2023-03-26T05:30:59;98173.06;;;13.49;66.96
19526;BME280;9907;42.676;26.348;2023-03-26T05:33:25;98170.41;;;13.72;65.57
19526;BME280;9907;42.676;26.348;2023-03-26T05:36:08;98183.56;;;13.89;65.15
19526;BME280;9907;42.676;26.348;2023-03-26T05:38:37;98182.72;;;14.11;65.02
19526;BME280;9907;42.676;26.348;2023-03-26T05:41:04;98174.50;;;14.28;63.92
19526;BME280;9907;42.676;26.348;2023-03-26T05:43:31;98179.34;;;14.32;62.89
19526;BME280;9907;42.676;26.348;2023-03-26T05:45:56;98178.25;;;14.41;62.98
19526;BME280;9907;42.676;26.348;2023-03-26T05:48:23;98197.84;;;14.50;62.33
19526;BME280;9907;42.676;26.348;2023-03-26T05:50:49;98198.41;;;14.60;62.15
19526;BME280;9907;42.676;26.348;2023-03-26T05:53:16;98193.34;;;14.65;62.03
19526;BME280;9907;42.676;26.348;2023-03-26T05:55:43;98184.06;;;14.97;60.48
19526;BME280;9907;42.676;26.348;2023-03-26T05:58:20;98191.28;;;14.67;59.57
19526;BME280;9907;42.676;26.348;2023-03-26T06:00:45;98220.53;;;14.47;59.23
19526;BME280;9907;42.676;26.348;2023-03-26T06:03:13;98205.38;;;14.09;59.53
19526;BME280;9907;42.676;26.348;2023-03-26T06:05:39;98217.44;;;14.58;58.69
19526;BME280;9907;42.676;26.348;2023-03-26T06:08:05;98218.38;;;14.95;58.75
19526;BME280;9907;42.676;26.348;2023-03-26T06:10:31;98221.69;;;14.68;57.10
19526;BME280;9907;42.676;26.348;2023-03-26T06:12:56;98232.47;;;14.82;56.19
19526;BME280;9907;42.676;26.348;2023-03-26T06:15:22;98232.59;;;15.03;55.83
19526;BME280;9907;42.676;26.348;2023-03-26T06:17:48;98226.06;;;15.42;56.22
19526;BME280;9907;42.676;26.348;2023-03-26T06:20:14;98243.34;;;15.62;55.10
19526;BME280;9907;42.676;26.348;2023-03-26T06:22:40;98239.88;;;15.68;54.23
19526;BME280;9907;42.676;26.348;2023-03-26T06:25:06;98225.31;;;15.98;55.60
19526;BME280;9907;42.676;26.348;2023-03-26T06:27:31;98238.22;;;16.03;53.76
19526;BME280;9907;42.676;26.348;2023-03-26T06:29:57;98222.31;;;16.08;53.29
19526;BME280;9907;42.676;26.348;2023-03-26T06:32:25;98228.28;;;16.25;52.92
19526;BME280;9907;42.676;26.348;2023-03-26T06:34:50;98220.59;;;16.43;52.59
19526;BME280;9907;42.676;26.348;2023-03-26T06:37:16;98236.06;;;16.13;51.75
19526;BME280;9907;42.676;26.348;2023-03-26T06:39:41;98233.75;;;16.31;51.25
19526;BME280;9907;42.676;26.348;2023-03-26T06:42:07;98231.50;;;16.56;51.41
19526;BME280;9907;42.676;26.348;2023-03-26T06:44:32;98229.13;;;16.46;50.94
19526;BME280;9907;42.676;26.348;2023-03-26T06:46:58;98217.63;;;16.17;51.37
19526;BME280;9907;42.676;26.348;2023-03-26T06:49:23;98213.13;;;16.45;51.02
19526;BME280;9907;42.676;26.348;2023-03-26T06:51:49;98224.06;;;16.37;50.69
19526;BME280;9907;42.676;26.348;2023-03-26T06:54:15;98224.91;;;16.59;50.87
19526;BME280;9907;42.676;26.348;2023-03-26T06:56:40;98249.06;;;16.31;50.40
19526;BME280;9907;42.676;26.348;2023-03-26T06:59:06;98237.78;;;15.99;50.55
19526;BME280;9907;42.676;26.348;2023-03-26T07:01:31;98229.09;;;16.04;50.69
19526;BME280;9907;42.676;26.348;2023-03-26T07:03:57;98231.81;;;16.46;49.93
19526;BME280;9907;42.676;26.348;2023-03-26T07:06:23;98203.72;;;16.83;49.54
19526;BME280;9907;42.676;26.348;2023-03-26T07:08:48;98239.31;;;16.51;49.48
19526;BME280;9907;42.676;26.348;2023-03-26T07:11:14;98220.19;;;16.46;49.80
19526;BME280;9907;42.676;26.348;2023-03-26T07:13:41;98253.41;;;16.74;49.79
19526;BME280;9907;42.676;26.348;2023-03-26T07:16:07;98252.78;;;16.08;50.34
19526;BME280;9907;42.676;26.348;2023-03-26T07:18:32;98234.63;;;16.38;50.81
19526;BME280;9907;42.676;26.348;2023-03-26T07:20:58;98213.91;;;16.88;50.13
19526;BME280;9907;42.676;26.348;2023-03-26T07:23:24;98227.00;;;16.63;49.63
19526;BME280;9907;42.676;26.348;2023-03-26T07:25:50;98236.22;;;16.75;49.60
19526;BME280;9907;42.676;26.348;2023-03-26T07:34:17;98241.72;;;16.88;50.23
19526;BME280;9907;42.676;26.348;2023-03-26T07:36:56;98249.06;;;16.31;50.00
19526;BME280;9907;42.676;26.348;2023-03-26T07:39:56;98252.59;;;16.31;50.06
19526;BME280;9907;42.676;26.348;2023-03-26T07:43:00;98257.53;;;16.06;49.59
19526;BME280;9907;42.676;26.348;2023-03-26T07:45:41;98249.34;;;16.57;51.06
19526;BME280;9907;42.676;26.348;2023-03-26T07:50:45;98257.06;;;16.88;48.89
19526;BME280;9907;42.676;26.348;2023-03-26T07:53:12;98271.19;;;17.18;47.68
19526;BME280;9907;42.676;26.348;2023-03-26T07:56:28;98269.50;;;16.89;47.95
19526;BME280;9907;42.676;26.348;2023-03-26T08:01:15;98269.09;;;17.13;47.63
19526;BME280;9907;42.676;26.348;2023-03-26T08:06:42;98283.94;;;17.02;47.77
19526;BME280;9907;42.676;26.348;2023-03-26T08:15:20;98260.19;;;17.19;46.25
19526;BME280;9907;42.676;26.348;2023-03-26T08:25:56;98255.91;;;17.66;45.42
19526;BME280;9907;42.676;26.348;2023-03-26T08:30:55;98259.75;;;17.84;46.97
19526;BME280;9907;42.676;26.348;2023-03-26T08:33:21;98275.56;;;17.94;46.57
19526;BME280;9907;42.676;26.348;2023-03-26T08:35:51;98285.16;;;18.03;44.63
19526;BME280;9907;42.676;26.348;2023-03-26T08:38:18;98270.56;;;17.91;44.47
19526;BME280;9907;42.676;26.348;2023-03-26T08:49:32;98276.25;;;18.22;44.38
19526;BME280;9907;42.676;26.348;2023-03-26T08:52:36;98286.31;;;17.81;44.67
19526;BME280;9907;42.676;26.348;2023-03-26T09:00:57;98281.78;;;18.62;45.23
19526;BME280;9907;42.676;26.348;2023-03-26T09:03:57;98286.38;;;17.94;43.79
19526;BME280;9907;42.676;26.348;2023-03-26T09:09:24;98282.22;;;17.98;44.36
19526;BME280;9907;42.676;26.348;2023-03-26T09:17:51;98272.34;;;17.71;44.85
19526;BME280;9907;42.676;26.348;2023-03-26T09:37:24;98275.94;;;17.84;43.22
19526;BME280;9907;42.676;26.348;2023-03-26T10:02:30;98265.59;;;17.19;43.54
19526;BME280;9907;42.676;26.348;2023-03-26T10:05:22;98243.03;;;17.33;42.91
19526;BME280;9907;42.676;26.348;2023-03-26T10:12:57;98269.97;;;17.20;43.23
19526;BME280;9907;42.676;26.348;2023-03-26T10:15:35;98273.72;;;17.26;42.35
19526;BME280;9907;42.676;26.348;2023-03-26T10:18:21;98275.84;;;17.02;42.36
19526;BME280;9907;42.676;26.348;2023-03-26T10:20:58;98284.06;;;17.50;44.29
19526;BME280;9907;42.676;26.348;2023-03-26T10:26:26;98276.75;;;17.10;41.77
19526;BME280;9907;42.676;26.348;2023-03-26T10:42:49;98255.31;;;17.36;41.01
19526;BME280;9907;42.676;26.348;2023-03-26T10:45:54;98260.06;;;17.62;39.79
19526;BME280;9907;42.676;26.348;2023-03-26T10:59:48;98226.84;;;17.68;39.71
19526;BME280;9907;42.676;26.348;2023-03-26T11:02:27;98254.38;;;17.22;38.31
19526;BME280;9907;42.676;26.348;2023-03-26T11:10:09;98239.34;;;16.79;39.92
19526;BME280;9907;42.676;26.348;2023-03-26T11:12:59;98244.97;;;16.77;40.00
19526;BME280;9907;42.676;26.348;2023-03-26T11:18:27;98242.50;;;16.82;39.40
19526;BME280;9907;42.676;26.348;2023-03-26T11:23:44;98248.88;;;17.02;38.86
19526;BME280;9907;42.676;26.348;2023-03-26T11:26:20;98257.56;;;16.98;38.73
19526;BME280;9907;42.676;26.348;2023-03-26T11:34:35;98219.38;;;17.35;38.76
19526;BME280;9907;42.676;26.348;2023-03-26T11:37:10;98217.16;;;17.45;38.64
19526;BME280;9907;42.676;26.348;2023-03-26T11:39:47;98228.09;;;17.37;37.17
19526;BME280;9907;42.676;26.348;2023-03-26T11:42:15;98225.66;;;17.08;35.26
19526;BME280;9907;42.676;26.348;2023-03-26T11:44:56;98192.28;;;17.16;35.82
19526;BME280;9907;42.676;26.348;2023-03-26T11:47:29;98197.50;;;17.17;34.65
19526;BME280;9907;42.676;26.348;2023-03-26T11:49:57;98196.66;;;17.17;34.59
19526;BME280;9907;42.676;26.348;2023-03-26T11:52:24;98195.84;;;17.23;34.52
19526;BME280;9907;42.676;26.348;2023-03-26T11:54:50;98185.69;;;17.18;34.33
19526;BME280;9907;42.676;26.348;2023-03-26T11:57:23;98187.56;;;17.24;33.83
19526;BME280;9907;42.676;26.348;2023-03-26T11:59:54;98194.16;;;17.15;32.94
19526;BME280;9907;42.676;26.348;2023-03-26T12:02:30;98178.78;;;17.09;33.06
19526;BME280;9907;42.676;26.348;2023-03-26T12:05:11;98171.38;;;17.24;34.30
19526;BME280;9907;42.676;26.348;2023-03-26T12:07:48;98168.53;;;17.39;34.60
19526;BME280;9907;42.676;26.348;2023-03-26T12:10:25;98177.44;;;17.33;32.99
19526;BME280;9907;42.676;26.348;2023-03-26T12:12:57;98171.56;;;17.23;33.68
19526;BME280;9907;42.676;26.348;2023-03-26T12:15:24;98169.31;;;17.26;34.54
19526;BME280;9907;42.676;26.348;2023-03-26T12:17:54;98176.63;;;17.32;34.18
19526;BME280;9907;42.676;26.348;2023-03-26T12:22:57;98168.47;;;17.26;33.62
19526;BME280;9907;42.676;26.348;2023-03-26T12:25:31;98158.75;;;17.31;33.70
19526;BME280;9907;42.676;26.348;2023-03-26T12:30:29;98183.72;;;17.06;32.85
19526;BME280;9907;42.676;26.348;2023-03-26T12:33:00;98178.63;;;17.17;34.09
19526;BME280;9907;42.676;26.348;2023-03-26T12:35:29;98168.09;;;17.35;32.53
19526;BME280;9907;42.676;26.348;2023-03-26T12:41:13;98150.94;;;17.49;34.27
19526;BME280;9907;42.676;26.348;2023-03-26T12:43:44;98169.81;;;17.49;32.98
19526;BME280;9907;42.676;26.348;2023-03-26T12:46:37;98159.41;;;17.40;32.67
19526;BME280;9907;42.676;26.348;2023-03-26T12:49:05;98158.16;;;17.42;33.00
19526;BME280;9907;42.676;26.348;2023-03-26T12:51:52;98158.19;;;17.49;32.45
19526;BME280;9907;42.676;26.348;2023-03-26T13:00:15;98136.56;;;17.36;32.38
19526;BME280;9907;42.676;26.348;2023-03-26T13:14:15;98132.97;;;17.70;34.35
19526;BME280;9907;42.676;26.348;2023-03-26T13:16:59;98126.72;;;17.76;33.97
19526;BME280;9907;42.676;26.348;2023-03-26T13:22:18;98118.63;;;17.89;34.07
19526;BME280;9907;42.676;26.348;2023-03-26T13:27:43;98121.34;;;17.89;34.32
19526;BME280;9907;42.676;26.348;2023-03-26T13:33:06;98124.25;;;17.81;35.51
19526;BME280;9907;42.676;26.348;2023-03-26T13:44:11;98118.03;;;17.87;34.34
19526;BME280;9907;42.676;26.348;2023-03-26T13:46:44;98117.00;;;17.88;35.66
19526;BME280;9907;42.676;26.348;2023-03-26T13:49:18;98117.19;;;17.86;35.47
19526;BME280;9907;42.676;26.348;2023-03-26T13:51:58;98129.44;;;17.76;33.77
19526;BME280;9907;42.676;26.348;2023-03-26T13:54:42;98118.63;;;17.69;33.72
19526;BME280;9907;42.676;26.348;2023-03-26T13:57:21;98109.25;;;17.72;33.07
19526;BME280;9907;42.676;26.348;2023-03-26T13:59:57;98115.31;;;17.80;32.72
19526;BME280;9907;42.676;26.348;2023-03-26T14:02:42;98120.06;;;17.85;33.20
19526;BME280;9907;42.676;26.348;2023-03-26T14:05:19;98118.44;;;17.84;33.75
19526;BME280;9907;42.676;26.348;2023-03-26T14:07:49;98117.38;;;17.85;34.07
19526;BME280;9907;42.676;26.348;2023-03-26T14:10:22;98129.25;;;17.84;33.19
19526;BME280;9907;42.676;26.348;2023-03-26T14:12:55;98119.88;;;17.80;32.46
19526;BME280;9907;42.676;26.348;2023-03-26T14:34:40;98135.66;;;17.70;32.05
19526;BME280;9907;42.676;26.348;2023-03-26T14:54:00;98123.38;;;17.61;31.50
19526;BME280;9907;42.676;26.348;2023-03-26T15:14:44;98126.34;;;17.31;32.95
19526;BME280;9907;42.676;26.348;2023-03-26T15:37:39;98144.97;;;17.13;33.13
19526;BME280;9907;42.676;26.348;2023-03-26T16:01:36;98146.34;;;16.96;33.08
19526;BME280;9907;42.676;26.348;2023-03-26T16:14:40;98170.03;;;16.73;30.96
19526;BME280;9907;42.676;26.348;2023-03-26T16:17:12;98171.53;;;16.82;32.29
19526;BME280;9907;42.676;26.348;2023-03-26T16:20:18;98171.16;;;16.85;31.72
19526;BME280;9907;42.676;26.348;2023-03-26T16:27:43;98177.25;;;16.66;30.95
19526;BME280;9907;42.676;26.348;2023-03-26T16:30:27;98176.03;;;16.68;31.48
19526;BME280;9907;42.676;26.348;2023-03-26T16:32:57;98173.38;;;16.53;31.95
19526;BME280;9907;42.676;26.348;2023-03-26T16:35:39;98174.63;;;16.51;31.36
19526;BME280;9907;42.676;26.348;2023-03-26T16:38:10;98182.44;;;16.46;32.08
19526;BME280;9907;42.676;26.348;2023-03-26T16:43:40;98180.28;;;16.35;32.50
19526;BME280;9907;42.676;26.348;2023-03-26T16:52:01;98191.31;;;16.19;31.82
19526;BME280;9907;42.676;26.348;2023-03-26T16:57:18;98196.41;;;16.28;32.15
19526;BME280;9907;42.676;26.348;2023-03-26T17:08:43;98209.16;;;15.98;31.62
19526;BME280;9907;42.676;26.348;2023-03-26T17:11:40;98205.31;;;15.86;31.27
19526;BME280;9907;42.676;26.348;2023-03-26T17:19:45;98209.31;;;15.76;31.71
19526;BME280;9907;42.676;26.348;2023-03-26T17:22:32;98214.19;;;15.66;31.30
19526;BME280;9907;42.676;26.348;2023-03-26T17:43:10;98238.69;;;15.27;34.86
19526;BME280;9907;42.676;26.348;2023-03-26T17:45:40;98243.06;;;15.28;34.85
19526;BME280;9907;42.676;26.348;2023-03-26T17:48:15;98255.22;;;15.24;35.04
19526;BME280;9907;42.676;26.348;2023-03-26T17:50:50;98246.59;;;15.28;35.44
19526;BME280;9907;42.676;26.348;2023-03-26T17:53:28;98248.63;;;15.26;35.38
19526;BME280;9907;42.676;26.348;2023-03-26T17:55:58;98243.06;;;15.28;35.27
19526;BME280;9907;42.676;26.348;2023-03-26T17:58:41;98243.25;;;15.11;35.71
19526;BME280;9907;42.676;26.348;2023-03-26T18:03:54;98243.06;;;15.13;35.27
19526;BME280;9907;42.676;26.348;2023-03-26T18:09:27;98235.06;;;15.05;35.51
19526;BME280;9907;42.676;26.348;2023-03-26T18:17:30;98239.91;;;14.95;35.33
19526;BME280;9907;42.676;26.348;2023-03-26T18:20:04;98248.50;;;14.90;35.12
19526;BME280;9907;42.676;26.348;2023-03-26T18:22:30;98235.75;;;14.92;35.09
19526;BME280;9907;42.676;26.348;2023-03-26T18:24:59;98238.59;;;14.91;35.20
19526;BME280;9907;42.676;26.348;2023-03-26T18:27:32;98242.28;;;14.90;35.57
19526;BME280;9907;42.676;26.348;2023-03-26T18:30:02;98226.16;;;14.90;35.48
19526;BME280;9907;42.676;26.348;2023-03-26T18:32:29;98233.22;;;14.91;35.15
19526;BME280;9907;42.676;26.348;2023-03-26T18:34:59;98231.91;;;14.87;35.49
19526;BME280;9907;42.676;26.348;2023-03-26T18:37:32;98227.53;;;14.86;35.87
19526;BME280;9907;42.676;26.348;2023-03-26T18:42:46;98238.03;;;14.81;35.67
19526;BME280;9907;42.676;26.348;2023-03-26T18:45:33;98245.56;;;14.85;36.11
19526;BME280;9907;42.676;26.348;2023-03-26T18:48:03;98234.34;;;14.82;35.78
19526;BME280;9907;42.676;26.348;2023-03-26T18:50:39;98240.34;;;14.84;35.49
19526;BME280;9907;42.676;26.348;2023-03-26T18:53:12;98235.34;;;14.81;35.87
19526;BME280;9907;42.676;26.348;2023-03-26T18:55:39;98236.28;;;14.88;36.01
19526;BME280;9907;42.676;26.348;2023-03-26T18:58:31;98233.31;;;14.83;36.05
19526;BME280;9907;42.676;26.348;2023-03-26T19:01:02;98224.66;;;14.73;36.77
19526;BME280;9907;42.676;26.348;2023-03-26T19:03:31;98230.22;;;14.86;36.16
19526;BME280;9907;42.676;26.348;2023-03-26T19:06:00;98234.41;;;14.74;36.65
19526;BME280;9907;42.676;26.348;2023-03-26T19:08:31;98229.88;;;14.74;36.86
19526;BME280;9907;42.676;26.348;2023-03-26T19:10:59;98222.28;;;14.78;35.96
19526;BME280;9907;42.676;26.348;2023-03-26T19:13:30;98236.34;;;14.80;36.69
19526;BME280;9907;42.676;26.348;2023-03-26T19:15:57;98231.16;;;14.78;36.06
19526;BME280;9907;42.676;26.348;2023-03-26T19:18:25;98236.34;;;14.80;35.81
19526;BME280;9907;42.676;26.348;2023-03-26T19:20:54;98232.56;;;14.74;35.79
19526;BME280;9907;42.676;26.348;2023-03-26T19:23:25;98234.03;;;14.77;35.82
19526;BME280;9907;42.676;26.348;2023-03-26T19:25:56;98235.25;;;14.74;35.82
19526;BME280;9907;42.676;26.348;2023-03-26T19:28:24;98242.47;;;14.74;35.56
19526;BME280;9907;42.676;26.348;2023-03-26T19:30:57;98238.47;;;14.70;35.80
19526;BME280;9907;42.676;26.348;2023-03-26T19:33:31;98240.09;;;14.56;36.65
19526;BME280;9907;42.676;26.348;2023-03-26T19:36:13;98238.09;;;14.35;36.73
19526;BME280;9907;42.676;26.348;2023-03-26T19:44:14;98235.03;;;13.93;37.56
19526;BME280;9907;42.676;26.348;2023-03-26T19:46:43;98229.72;;;13.85;37.78
19526;BME280;9907;42.676;26.348;2023-03-26T19:49:28;98231.53;;;13.92;38.16